Time;durP1;ratioP1;P1;durP2;ratioP2;P2;SDS_P1;SDS_P2;PMS_P1;PMS_P2;Temp;Humidity;BMP_temperature;BMP_pressure;BME280_temperature;BME280_humidity;BME280_pressure;Samples;Min_cycle;Max_cycle;Signal;HPM_P1;HPM_P2
2024/01/07 00:01:00;;;;;;;38.57;16.97;;;0.80;99.90;;;;;;4183588;28;20455;-77
2024/01/07 00:03:02;;;;;;;40.00;16.10;;;0.80;99.90;;;;;;4177077;28;20535;-79
2024/01/07 00:05:07;;;;;;;38.20;16.33;;;0.80;99.90;;;;;;4182169;28;20523;-76
2024/01/07 00:07:09;;;;;;;35.83;15.93;;;0.80;99.90;;;;;;4178012;28;20977;-77
2024/01/07 00:09:11;;;;;;;32.97;14.57;;;0.70;99.90;;;;;;4178193;28;20512;-77
2024/01/07 00:11:14;;;;;;;33.07;14.97;;;0.70;99.90;;;;;;4184230;28;20559;-76
2024/01/07 00:13:16;;;;;;;38.37;14.97;;;0.70;99.90;;;;;;4174751;28;20509;-77
2024/01/07 00:15:19;;;;;;;31.73;13.83;;;0.70;99.90;;;;;;4172892;28;20455;-78
2024/01/07 00:17:21;;;;;;;31.20;15.00;;;0.70;99.90;;;;;;4178979;28;20444;-76
2024/01/07 00:19:25;;;;;;;33.57;15.17;;;0.70;99.90;;;;;;4174774;28;20500;-77
2024/01/07 00:21:26;;;;;;;35.70;15.03;;;0.70;99.90;;;;;;4178801;28;20460;-79
2024/01/07 00:23:28;;;;;;;34.87;14.47;;;0.80;99.90;;;;;;4181499;28;20558;-76
2024/01/07 00:25:29;;;;;;;34.70;14.57;;;0.70;99.90;;;;;;4179710;28;20973;-77
2024/01/07 00:27:33;;;;;;;32.83;14.13;;;0.70;99.90;;;;;;4174183;28;20781;-77
2024/01/07 00:29:35;;;;;;;30.90;14.27;;;0.70;99.90;;;;;;4180212;28;20445;-76
2024/01/07 00:31:37;;;;;;;32.20;13.33;;;0.70;99.90;;;;;;4157449;28;20445;-77
2024/01/07 00:33:39;;;;;;;32.20;13.43;;;0.60;99.90;;;;;;4177476;28;20457;-78
2024/01/07 00:35:41;;;;;;;34.97;14.03;;;0.70;99.90;;;;;;4179994;28;20468;-77
2024/01/07 00:37:43;;;;;;;29.37;13.37;;;0.60;99.90;;;;;;4177113;28;20497;-76
2024/01/07 00:39:45;;;;;;;28.43;12.73;;;0.60;99.90;;;;;;4175415;28;20453;-76
2024/01/07 00:41:46;;;;;;;27.43;12.90;;;0.60;99.90;;;;;;4173186;28;20503;-77
2024/01/07 00:43:50;;;;;;;34.40;13.23;;;0.60;99.90;;;;;;4173581;28;20476;-76
2024/01/07 00:45:51;;;;;;;27.87;12.27;;;0.60;99.90;;;;;;4176480;28;20468;-77
2024/01/07 00:47:54;;;;;;;28.33;12.33;;;0.60;99.90;;;;;;4158772;28;20456;-77
2024/01/07 00:49:55;;;;;;;32.13;13.33;;;0.60;99.90;;;;;;4176223;28;20464;-77
2024/01/07 00:51:57;;;;;;;27.43;13.27;;;0.60;99.90;;;;;;4181534;28;21175;-77
2024/01/07 00:53:59;;;;;;;29.80;11.33;;;0.60;99.90;;;;;;4176317;28;20455;-77
2024/01/07 00:56:01;;;;;;;29.60;12.43;;;0.60;99.90;;;;;;4173965;28;20441;-78
2024/01/07 00:58:03;;;;;;;32.10;12.67;;;0.60;99.90;;;;;;4157028;28;20455;-78
2024/01/07 01:00:08;;;;;;;34.37;12.77;;;0.50;99.90;;;;;;4172186;28;20441;-78
2024/01/07 01:02:10;;;;;;;30.53;12.23;;;0.50;99.90;;;;;;4177821;28;20457;-78
2024/01/07 01:04:13;;;;;;;25.87;11.93;;;0.50;99.90;;;;;;4179181;28;20456;-78
2024/01/07 01:06:15;;;;;;;27.00;12.00;;;0.70;99.90;;;;;;4179355;28;20440;-77
2024/01/07 01:08:17;;;;;;;28.23;11.97;;;0.50;99.90;;;;;;4163161;28;20517;-78
2024/01/07 01:10:20;;;;;;;28.27;12.07;;;0.50;99.90;;;;;;4175465;28;20458;-78
2024/01/07 01:12:25;;;;;;;26.90;11.33;;;0.50;99.90;;;;;;4180803;28;20441;-77
2024/01/07 01:14:28;;;;;;;28.33;11.97;;;0.50;99.90;;;;;;4178618;28;20480;-76
2024/01/07 01:16:31;;;;;;;27.83;11.73;;;1.20;99.90;;;;;;4172278;28;20438;-78
2024/01/07 01:18:35;;;;;;;25.63;12.43;;;0.40;99.90;;;;;;4177216;28;20452;-79
2024/01/07 01:20:36;;;;;;;26.60;12.27;;;0.40;99.90;;;;;;4181257;28;20805;-79
2024/01/07 01:22:38;;;;;;;28.93;11.70;;;0.60;99.90;;;;;;4175602;28;20487;-79
2024/01/07 01:24:40;;;;;;;26.07;11.63;;;0.40;99.90;;;;;;4177388;28;20229;-78
2024/01/07 01:26:42;;;;;;;25.27;10.93;;;0.40;99.90;;;;;;4161767;28;20457;-78
2024/01/07 01:28:44;;;;;;;24.20;11.30;;;0.40;99.90;;;;;;4180059;28;20831;-77
2024/01/07 01:30:46;;;;;;;27.07;12.00;;;0.40;99.90;;;;;;4178410;28;20951;-78
2024/01/07 01:32:49;;;;;;;25.27;10.20;;;0.40;99.90;;;;;;4178716;28;20460;-79
2024/01/07 01:34:51;;;;;;;26.40;11.03;;;0.40;99.90;;;;;;4181197;28;20887;-78
2024/01/07 01:36:53;;;;;;;25.50;11.30;;;0.30;99.90;;;;;;4178917;28;20449;-78
2024/01/07 01:38:55;;;;;;;27.07;11.33;;;0.40;99.90;;;;;;4181611;28;20455;-78
2024/01/07 01:40:57;;;;;;;24.47;10.67;;;0.40;99.90;;;;;;4187135;28;20995;-78
2024/01/07 01:42:58;;;;;;;24.37;11.13;;;0.40;99.90;;;;;;4159157;28;20532;-78
2024/01/07 01:45:01;;;;;;;27.20;11.20;;;0.40;99.90;;;;;;4181015;28;21126;-77
2024/01/07 01:47:04;;;;;;;25.67;11.40;;;0.30;99.90;;;;;;4180678;28;20268;-78
2024/01/07 01:49:08;;;;;;;25.40;10.27;;;0.30;99.90;;;;;;4179645;28;20595;-79
2024/01/07 01:51:10;;;;;;;23.50;10.20;;;0.40;99.90;;;;;;4185123;28;20449;-78
2024/01/07 01:53:11;;;;;;;23.23;9.97;;;0.30;99.90;;;;;;4186317;28;21521;-78
2024/01/07 01:55:14;;;;;;;22.80;10.10;;;0.30;99.90;;;;;;4176889;28;20471;-77
2024/01/07 01:57:20;;;;;;;23.57;10.23;;;0.30;99.90;;;;;;4181034;28;20225;-79
2024/01/07 01:59:22;;;;;;;22.63;10.27;;;0.30;99.90;;;;;;4182103;28;20483;-78
2024/01/07 02:01:24;;;;;;;20.73;10.07;;;0.30;99.90;;;;;;4180550;28;20494;-77
2024/01/07 02:03:26;;;;;;;23.43;10.17;;;0.30;99.90;;;;;;4183092;28;20493;-79
2024/01/07 02:05:30;;;;;;;22.30;9.07;;;0.20;99.90;;;;;;4178417;28;20488;-79
2024/01/07 02:07:32;;;;;;;22.47;9.80;;;0.20;99.90;;;;;;4181708;28;20546;-78
2024/01/07 02:09:34;;;;;;;22.23;9.57;;;0.20;99.90;;;;;;4180416;28;20443;-78
2024/01/07 02:11:36;;;;;;;21.90;10.03;;;0.20;99.90;;;;;;4177754;28;20441;-77
2024/01/07 02:13:38;;;;;;;21.27;9.93;;;0.20;99.90;;;;;;4178877;28;20496;-78
2024/01/07 02:15:40;;;;;;;19.00;9.57;;;0.20;99.90;;;;;;4178370;28;20465;-77
2024/01/07 02:17:42;;;;;;;23.57;9.40;;;0.20;99.90;;;;;;4184408;28;20790;-78
2024/01/07 02:19:44;;;;;;;21.70;9.07;;;0.20;99.90;;;;;;4176872;28;20449;-78
2024/01/07 02:21:46;;;;;;;20.80;9.43;;;0.20;99.90;;;;;;4183904;28;20471;-77
2024/01/07 02:23:48;;;;;;;20.77;9.33;;;0.10;99.90;;;;;;4176190;28;20495;-77
2024/01/07 02:25:51;;;;;;;19.40;9.30;;;0.20;99.90;;;;;;4182153;28;20492;-78
2024/01/07 02:27:53;;;;;;;19.47;9.00;;;0.10;99.90;;;;;;4181819;28;20461;-79
2024/01/07 02:29:56;;;;;;;17.70;8.27;;;0.20;99.90;;;;;;4183060;28;20453;-79
2024/01/07 02:31:58;;;;;;;20.10;9.07;;;0.10;99.90;;;;;;4181883;28;20457;-78
2024/01/07 02:34:00;;;;;;;17.10;8.63;;;0.10;99.90;;;;;;4181126;28;20440;-79
2024/01/07 02:36:02;;;;;;;18.70;8.70;;;0.10;99.90;;;;;;4181676;28;20463;-78
2024/01/07 02:38:03;;;;;;;19.50;9.37;;;0.10;99.90;;;;;;4180037;28;20521;-78
2024/01/07 02:40:06;;;;;;;17.37;8.60;;;0.10;99.90;;;;;;4181229;28;20448;-78
2024/01/07 02:42:10;;;;;;;19.73;9.13;;;0.10;99.90;;;;;;4163633;28;20458;-78
2024/01/07 02:44:14;;;;;;;19.87;9.10;;;0.10;99.90;;;;;;4174554;28;20469;-78
2024/01/07 02:46:16;;;;;;;16.77;8.50;;;0.10;99.90;;;;;;4159092;28;20861;-78
2024/01/07 02:48:18;;;;;;;19.83;8.53;;;0.10;99.90;;;;;;4173819;28;20448;-79
2024/01/07 02:50:20;;;;;;;22.97;9.00;;;0.00;99.90;;;;;;4179393;28;20472;-78
2024/01/07 02:52:21;;;;;;;20.90;9.37;;;0.00;99.90;;;;;;4177056;28;20445;-79
2024/01/07 02:54:23;;;;;;;20.53;9.13;;;0.00;99.90;;;;;;4177914;28;20486;-78
2024/01/07 02:56:25;;;;;;;18.47;8.83;;;0.00;99.90;;;;;;4192123;28;20206;-79
2024/01/07 02:58:28;;;;;;;17.40;8.47;;;0.00;99.90;;;;;;4179455;28;20449;-79
2024/01/07 03:00:31;;;;;;;19.53;9.17;;;0.00;99.90;;;;;;4179201;28;20498;-79
2024/01/07 03:02:33;;;;;;;20.03;8.77;;;0.00;99.90;;;;;;4177599;28;20477;-78
2024/01/07 03:04:34;;;;;;;17.33;8.03;;;0.00;99.90;;;;;;4179102;28;21160;-78
2024/01/07 03:06:36;;;;;;;17.47;8.37;;;-0.10;99.90;;;;;;4174258;28;20447;-79
2024/01/07 03:08:37;;;;;;;19.50;8.43;;;-0.10;99.90;;;;;;4178130;28;20221;-79
2024/01/07 03:10:39;;;;;;;16.93;7.43;;;-0.10;99.90;;;;;;4172931;28;20445;-79
2024/01/07 03:12:41;;;;;;;18.43;7.13;;;-0.10;99.90;;;;;;4177899;28;20878;-78
2024/01/07 03:14:45;;;;;;;18.33;7.90;;;-0.10;99.90;;;;;;4175952;28;20461;-79
2024/01/07 03:16:46;;;;;;;15.57;7.47;;;-0.10;99.90;;;;;;4175782;28;20456;-78
2024/01/07 03:18:49;;;;;;;14.10;7.20;;;-0.10;99.90;;;;;;4175055;28;20465;-78
2024/01/07 03:20:50;;;;;;;17.00;7.67;;;-0.10;99.90;;;;;;4172814;28;20523;-78
2024/01/07 03:22:51;;;;;;;15.37;6.60;;;-0.10;99.90;;;;;;4172978;28;20511;-78
2024/01/07 03:24:53;;;;;;;16.50;7.03;;;-0.20;99.90;;;;;;4174967;28;20494;-78
2024/01/07 03:26:55;;;;;;;15.97;7.17;;;-0.20;99.90;;;;;;4197453;28;20205;-78
2024/01/07 03:28:59;;;;;;;14.87;7.10;;;-0.20;99.90;;;;;;4180353;28;20465;-78
2024/01/07 03:31:06;;;;;;;14.50;6.43;;;-0.20;99.90;;;;;;4181360;28;20443;-78
2024/01/07 03:33:09;;;;;;;17.40;6.90;;;-0.20;99.90;;;;;;4193797;28;20467;-77
2024/01/07 03:35:11;;;;;;;14.43;6.30;;;0.10;99.90;;;;;;4189547;28;20461;-78
2024/01/07 03:37:13;;;;;;;14.13;6.77;;;-0.20;99.90;;;;;;4180155;28;20444;-78
2024/01/07 03:39:15;;;;;;;14.23;6.70;;;-0.20;99.90;;;;;;4178637;28;20920;-79
2024/01/07 03:41:17;;;;;;;15.67;6.80;;;-0.20;99.90;;;;;;4156220;28;20564;-79
2024/01/07 03:43:19;;;;;;;13.27;5.83;;;-0.20;99.90;;;;;;4177785;28;20478;-79
2024/01/07 03:45:21;;;;;;;14.30;6.30;;;-0.20;99.90;;;;;;4176161;28;20486;-79
2024/01/07 03:47:25;;;;;;;15.17;6.13;;;-0.20;99.90;;;;;;4182652;28;20450;-79
2024/01/07 03:49:27;;;;;;;12.23;5.60;;;-0.20;99.90;;;;;;4174376;28;21091;-79
2024/01/07 03:51:29;;;;;;;13.17;5.83;;;-0.20;99.90;;;;;;4192270;28;20834;-79
2024/01/07 03:53:30;;;;;;;11.57;5.40;;;-0.30;99.90;;;;;;4179688;28;20440;-79
2024/01/07 03:55:31;;;;;;;11.10;4.93;;;-0.30;99.90;;;;;;4176105;28;20476;-79
2024/01/07 03:57:33;;;;;;;12.93;5.70;;;-0.30;99.90;;;;;;4183466;28;20449;-78
2024/01/07 03:59:35;;;;;;;13.40;5.63;;;-0.30;99.90;;;;;;4177484;28;20267;-79
2024/01/07 04:01:37;;;;;;;14.90;5.93;;;-0.30;99.90;;;;;;4177009;28;20967;-79
2024/01/07 04:03:41;;;;;;;12.83;6.07;;;-0.30;99.90;;;;;;4173917;28;20532;-78
2024/01/07 04:05:45;;;;;;;16.67;5.53;;;-0.30;99.90;;;;;;4175473;28;20888;-78
2024/01/07 04:07:47;;;;;;;14.17;5.97;;;-0.20;99.90;;;;;;4181438;28;20470;-78
2024/01/07 04:09:49;;;;;;;15.77;6.07;;;-0.40;99.90;;;;;;4179731;28;20482;-78
2024/01/07 04:11:51;;;;;;;13.37;5.40;;;-0.40;99.90;;;;;;4176317;28;20539;-78
2024/01/07 04:13:52;;;;;;;12.37;5.27;;;-0.40;99.90;;;;;;4177654;28;20517;-78
2024/01/07 04:15:54;;;;;;;12.13;5.30;;;-0.40;99.90;;;;;;4173785;28;20458;-78
2024/01/07 04:17:55;;;;;;;14.63;5.47;;;-0.40;99.90;;;;;;4156977;28;20218;-78
2024/01/07 04:19:59;;;;;;;15.13;5.40;;;-0.30;99.90;;;;;;4174447;28;20465;-78
2024/01/07 04:22:00;;;;;;;12.67;5.13;;;-0.40;99.90;;;;;;4174589;28;20959;-78
2024/01/07 04:24:02;;;;;;;12.33;5.37;;;-0.40;99.90;;;;;;4176776;28;20574;-78
2024/01/07 04:26:04;;;;;;;14.17;5.30;;;-0.40;99.90;;;;;;4176118;28;20627;-78
2024/01/07 04:28:07;;;;;;;9.43;4.77;;;-0.40;99.90;;;;;;4175183;28;20464;-78
2024/01/07 04:30:09;;;;;;;12.00;4.80;;;-0.40;99.90;;;;;;4171265;28;20484;-78
2024/01/07 04:32:11;;;;;;;9.70;4.30;;;-0.40;99.90;;;;;;4179631;28;20466;-78
2024/01/07 04:34:12;;;;;;;10.77;4.83;;;-0.50;99.90;;;;;;4180151;28;21116;-77
2024/01/07 04:36:15;;;;;;;10.30;4.30;;;-0.40;99.90;;;;;;4173672;28;20444;-77
2024/01/07 04:38:17;;;;;;;9.27;4.27;;;-0.40;99.90;;;;;;4173720;28;20222;-75
2024/01/07 04:40:19;;;;;;;9.20;4.50;;;-0.40;99.90;;;;;;4173635;28;20464;-77
2024/01/07 04:42:21;;;;;;;11.20;4.77;;;-0.40;99.90;;;;;;4173867;28;20446;-77
2024/01/07 04:44:23;;;;;;;9.17;4.47;;;-0.40;99.90;;;;;;4176052;28;21001;-77
2024/01/07 04:46:24;;;;;;;11.33;4.90;;;-0.50;99.90;;;;;;4175502;28;20860;-77
2024/01/07 04:48:26;;;;;;;12.17;4.20;;;-0.50;99.90;;;;;;4174327;28;20457;-77
2024/01/07 04:50:28;;;;;;;8.80;4.37;;;-0.50;99.90;;;;;;4173305;28;20205;-78
2024/01/07 04:52:31;;;;;;;9.77;4.43;;;-0.50;99.90;;;;;;4159450;28;20547;-77
2024/01/07 04:54:32;;;;;;;8.20;4.50;;;-0.50;99.90;;;;;;4178522;28;20472;-77
2024/01/07 04:56:34;;;;;;;8.57;4.03;;;-0.50;99.90;;;;;;4172250;28;20463;-77
2024/01/07 04:58:36;;;;;;;8.87;4.00;;;-0.50;99.90;;;;;;4175578;28;20201;-77
2024/01/07 05:00:38;;;;;;;11.50;4.43;;;-0.50;99.90;;;;;;4172581;28;20461;-77
2024/01/07 05:02:40;;;;;;;11.17;4.33;;;-0.50;99.90;;;;;;4171866;28;20875;-78
2024/01/07 05:04:42;;;;;;;8.77;3.67;;;-0.50;99.90;;;;;;4176385;28;20490;-77
2024/01/07 05:06:45;;;;;;;11.13;4.57;;;-0.50;99.90;;;;;;4177499;28;20438;-78
2024/01/07 05:08:48;;;;;;;8.73;4.03;;;-0.50;99.90;;;;;;4182606;28;20451;-78
2024/01/07 05:10:50;;;;;;;7.97;3.80;;;-0.60;99.90;;;;;;4177651;28;20985;-78
2024/01/07 05:12:52;;;;;;;8.73;3.70;;;-0.50;99.90;;;;;;4177621;28;20518;-78
2024/01/07 05:14:54;;;;;;;10.23;4.03;;;-0.60;99.90;;;;;;4177016;28;20995;-78
2024/01/07 05:16:55;;;;;;;7.33;3.43;;;-0.60;99.90;;;;;;4179750;28;20447;-78
2024/01/07 05:18:57;;;;;;;8.07;4.23;;;-0.60;99.90;;;;;;4176861;28;20506;-78
2024/01/07 05:20:58;;;;;;;8.17;3.70;;;-0.60;99.90;;;;;;4175520;28;20220;-78
2024/01/07 05:23:02;;;;;;;9.40;3.70;;;-0.60;99.90;;;;;;4177225;28;20440;-78
2024/01/07 05:25:05;;;;;;;8.17;4.27;;;-0.60;99.90;;;;;;4179906;28;20226;-78
2024/01/07 05:27:07;;;;;;;8.83;3.87;;;-0.60;99.90;;;;;;4178051;28;20499;-78
2024/01/07 05:29:10;;;;;;;8.93;3.70;;;-0.70;99.90;;;;;;4176001;28;20481;-78
2024/01/07 05:31:15;;;;;;;9.10;3.50;;;-0.40;99.90;;;;;;4176251;28;20476;-77
2024/01/07 05:33:17;;;;;;;6.73;3.70;;;-0.60;99.90;;;;;;4176563;28;20458;-78
2024/01/07 05:35:20;;;;;;;7.07;3.30;;;-0.60;99.90;;;;;;4180131;28;20464;-78
2024/01/07 05:37:22;;;;;;;9.27;3.87;;;-0.70;99.90;;;;;;4179790;28;20451;-78
2024/01/07 05:39:24;;;;;;;7.93;3.17;;;-0.70;99.90;;;;;;4178519;28;20455;-78
2024/01/07 05:41:27;;;;;;;6.83;3.23;;;-0.70;99.90;;;;;;4173074;28;20507;-77
2024/01/07 05:43:29;;;;;;;7.87;3.57;;;-0.70;99.90;;;;;;4181660;28;20450;-77
2024/01/07 05:45:31;;;;;;;8.23;3.70;;;-0.60;99.90;;;;;;4179888;28;20491;-78
2024/01/07 05:47:32;;;;;;;6.90;3.17;;;-0.70;99.90;;;;;;4184983;28;20455;-77
2024/01/07 05:49:34;;;;;;;6.57;3.10;;;-0.70;99.90;;;;;;4181773;28;20459;-77
2024/01/07 05:51:40;;;;;;;6.77;3.20;;;-0.70;99.90;;;;;;4186400;28;20435;-78
2024/01/07 05:53:42;;;;;;;8.90;3.43;;;-0.70;99.90;;;;;;4177141;28;20462;-77
2024/01/07 05:55:44;;;;;;;7.30;3.27;;;-0.70;99.90;;;;;;4180960;28;20479;-78
2024/01/07 05:57:47;;;;;;;8.80;3.30;;;-0.70;99.90;;;;;;4179798;28;21086;-78
2024/01/07 05:59:51;;;;;;;9.17;3.33;;;-0.70;99.90;;;;;;4183973;28;20461;-78
2024/01/07 06:01:58;;;;;;;5.93;2.80;;;-0.70;99.90;;;;;;4175212;28;20494;-77
2024/01/07 06:04:00;;;;;;;5.87;3.10;;;-0.70;99.90;;;;;;4177414;28;20449;-78
2024/01/07 06:06:02;;;;;;;7.70;3.00;;;-0.70;99.90;;;;;;4181715;28;20935;-77
2024/01/07 06:08:05;;;;;;;9.30;3.37;;;-0.70;99.90;;;;;;4180778;28;20949;-77
2024/01/07 06:10:07;;;;;;;6.53;3.27;;;-0.70;99.90;;;;;;4176685;28;20436;-78
2024/01/07 06:12:09;;;;;;;5.70;3.00;;;-0.70;99.90;;;;;;4178930;28;20455;-78
2024/01/07 06:14:12;;;;;;;5.87;3.00;;;-0.70;99.90;;;;;;4158949;28;20885;-78
2024/01/07 06:16:14;;;;;;;6.93;3.13;;;-0.70;99.90;;;;;;4175182;28;20523;-78
2024/01/07 06:18:16;;;;;;;7.97;3.40;;;-0.70;99.90;;;;;;4182146;28;21077;-77
2024/01/07 06:20:18;;;;;;;6.00;2.93;;;-0.50;99.90;;;;;;4178099;28;20608;-77
2024/01/07 06:22:20;;;;;;;7.33;3.30;;;-0.70;99.90;;;;;;4180420;28;20861;-78
2024/01/07 06:24:22;;;;;;;5.33;2.70;;;-0.70;99.90;;;;;;4180453;28;20480;-78
2024/01/07 06:26:22;;;;;;;5.60;2.77;;;-0.80;99.90;;;;;;4178198;28;20714;-77
2024/01/07 06:28:24;;;;;;;7.43;3.27;;;-0.70;99.90;;;;;;4181499;28;20876;-78
2024/01/07 06:30:28;;;;;;;5.20;2.80;;;-0.70;99.90;;;;;;4177310;28;20217;-78
2024/01/07 06:32:32;;;;;;;4.53;2.63;;;-0.70;99.90;;;;;;4182467;28;20451;-78
2024/01/07 06:34:34;;;;;;;6.97;2.40;;;-0.80;99.90;;;;;;4181498;28;20571;-78
2024/01/07 06:36:36;;;;;;;6.00;2.70;;;-0.70;99.90;;;;;;4177788;28;20884;-78
2024/01/07 06:38:37;;;;;;;6.83;2.77;;;-0.70;99.90;;;;;;4163319;28;20459;-78
2024/01/07 06:40:39;;;;;;;5.70;2.87;;;-0.80;99.90;;;;;;4182675;28;20448;-78
2024/01/07 06:42:43;;;;;;;5.63;2.60;;;-0.80;99.90;;;;;;4174753;28;20469;-78
2024/01/07 06:44:45;;;;;;;4.27;2.57;;;-0.70;99.90;;;;;;4180444;28;20534;-78
2024/01/07 06:46:48;;;;;;;6.37;2.77;;;-0.70;99.90;;;;;;4175910;28;20444;-78
2024/01/07 06:48:50;;;;;;;4.20;2.30;;;-0.70;99.90;;;;;;4157329;28;21544;-78
2024/01/07 06:50:52;;;;;;;5.50;2.70;;;-0.70;99.90;;;;;;4176027;28;20456;-78
2024/01/07 06:52:53;;;;;;;5.57;2.57;;;-0.80;99.90;;;;;;4178426;28;20456;-78
2024/01/07 06:54:55;;;;;;;5.97;2.67;;;-0.80;99.90;;;;;;4175680;28;20461;-78
2024/01/07 06:56:56;;;;;;;3.93;2.50;;;-0.70;99.90;;;;;;4173815;28;20288;-77
2024/01/07 06:58:58;;;;;;;6.30;3.07;;;-0.70;99.90;;;;;;4171088;28;20456;-78
2024/01/07 07:01:00;;;;;;;3.83;2.23;;;-0.80;99.90;;;;;;4178613;28;20834;-77
2024/01/07 07:03:04;;;;;;;5.97;2.37;;;-0.80;99.90;;;;;;4178966;28;20509;-78
2024/01/07 07:05:06;;;;;;;4.97;2.37;;;-0.80;99.90;;;;;;4175978;28;20488;-78
2024/01/07 07:07:07;;;;;;;5.60;2.40;;;-0.80;99.90;;;;;;4177744;28;20942;-78
2024/01/07 07:09:11;;;;;;;6.83;2.50;;;-0.80;99.90;;;;;;4179826;28;20509;-78
2024/01/07 07:11:13;;;;;;;3.77;2.20;;;-0.80;99.90;;;;;;4179702;28;20502;-78
2024/01/07 07:13:15;;;;;;;5.47;2.30;;;-0.80;99.90;;;;;;4173964;28;20475;-78
2024/01/07 07:15:17;;;;;;;6.90;2.90;;;-0.80;99.90;;;;;;4179101;28;20990;-79
2024/01/07 07:17:19;;;;;;;5.67;2.73;;;-0.80;99.90;;;;;;4177012;28;20437;-79
2024/01/07 07:19:22;;;;;;;4.57;2.47;;;-0.90;99.90;;;;;;4177557;28;20467;-77
2024/01/07 07:21:26;;;;;;;7.43;3.13;;;-0.90;99.90;;;;;;4173125;28;20826;-78
2024/01/07 07:23:28;;;;;;;8.73;2.90;;;-0.90;99.90;;;;;;4155286;28;20480;-77
2024/01/07 07:25:30;;;;;;;6.27;2.60;;;-0.90;99.90;;;;;;4176304;28;20551;-76
2024/01/07 07:27:32;;;;;;;6.50;3.07;;;-0.90;99.90;;;;;;4176821;28;20450;-77
2024/01/07 07:29:33;;;;;;;6.83;2.90;;;-0.90;99.90;;;;;;4173952;28;20514;-77
2024/01/07 07:31:35;;;;;;;7.70;3.10;;;-0.90;99.90;;;;;;4181055;28;20441;-78
2024/01/07 07:33:39;;;;;;;7.70;3.60;;;-0.90;99.90;;;;;;4174948;28;21038;-77
2024/01/07 07:35:42;;;;;;;6.57;2.90;;;-0.90;99.90;;;;;;4172401;28;20468;-80
2024/01/07 07:37:44;;;;;;;6.90;3.07;;;-1.00;99.90;;;;;;4179623;28;20479;-79
2024/01/07 07:39:46;;;;;;;7.37;3.20;;;-0.90;99.90;;;;;;4185138;28;20454;-82
2024/01/07 07:41:49;;;;;;;7.90;3.27;;;-0.90;99.90;;;;;;4179049;28;20439;-79
2024/01/07 07:43:50;;;;;;;6.20;3.10;;;-0.60;99.90;;;;;;4181201;28;20468;-84
2024/01/07 07:45:52;;;;;;;9.20;3.30;;;-1.00;99.90;;;;;;4176971;28;20982;-80
2024/01/07 07:47:54;;;;;;;6.23;2.93;;;-1.00;99.90;;;;;;4181781;28;20455;-80
2024/01/07 07:49:56;;;;;;;6.63;3.03;;;-1.00;99.90;;;;;;4173408;28;20443;-79
2024/01/07 07:51:59;;;;;;;5.90;3.00;;;-1.00;99.90;;;;;;4178615;28;20858;-80
2024/01/07 07:54:03;;;;;;;7.37;3.40;;;-1.00;99.90;;;;;;4184633;28;20520;-79
2024/01/07 07:56:05;;;;;;;5.80;2.93;;;-1.00;99.90;;;;;;4160430;28;20475;-79
2024/01/07 07:58:08;;;;;;;6.20;2.73;;;-1.00;99.90;;;;;;4185216;28;20813;-79
2024/01/07 08:00:13;;;;;;;5.63;2.67;;;-1.00;99.90;;;;;;4186626;28;20506;-79
2024/01/07 08:02:15;;;;;;;4.27;2.37;;;-1.10;99.90;;;;;;4181577;28;21888;-81
2024/01/07 08:04:17;;;;;;;6.07;2.47;;;-1.10;99.90;;;;;;4199263;28;20510;-81
2024/01/07 08:06:19;;;;;;;5.70;2.90;;;-1.10;99.90;;;;;;4182846;28;20480;-81
2024/01/07 08:08:23;;;;;;;6.33;2.87;;;-1.10;99.90;;;;;;4182139;28;20463;-81
2024/01/07 08:10:25;;;;;;;6.70;2.90;;;-1.10;99.90;;;;;;4181995;28;21033;-81
2024/01/07 08:12:27;;;;;;;8.63;3.40;;;-1.10;99.90;;;;;;4180124;28;20443;-81
2024/01/07 08:14:28;;;;;;;6.37;3.17;;;-1.10;99.90;;;;;;4183841;28;20470;-81
2024/01/07 08:16:31;;;;;;;5.47;2.63;;;-1.10;99.90;;;;;;4179304;28;20526;-81
2024/01/07 08:18:33;;;;;;;7.03;2.97;;;-1.10;99.90;;;;;;4179644;28;20441;-80
2024/01/07 08:20:35;;;;;;;9.07;4.83;;;-1.10;99.90;;;;;;4180087;28;20479;-80
2024/01/07 08:22:37;;;;;;;8.07;2.70;;;-1.20;99.90;;;;;;4182222;28;20435;-80
2024/01/07 08:24:41;;;;;;;6.53;2.63;;;-1.20;99.90;;;;;;4182898;28;20471;-80
2024/01/07 08:26:42;;;;;;;5.37;2.90;;;-1.20;99.90;;;;;;4178671;28;20818;-80
2024/01/07 08:28:44;;;;;;;6.20;2.37;;;-1.20;99.90;;;;;;4162408;28;20515;-80
2024/01/07 08:30:46;;;;;;;6.37;2.93;;;-1.20;99.90;;;;;;4170530;28;20260;-80
2024/01/07 08:32:48;;;;;;;5.07;2.80;;;-1.20;99.90;;;;;;4176750;28;21058;-80
2024/01/07 08:34:50;;;;;;;5.30;2.90;;;-1.20;99.90;;;;;;4175389;28;20541;-80
2024/01/07 08:36:54;;;;;;;4.83;2.50;;;-1.20;99.90;;;;;;4184548;28;20452;-80
2024/01/07 08:38:56;;;;;;;4.13;2.10;;;-1.20;99.90;;;;;;4176868;28;20443;-80
2024/01/07 08:40:59;;;;;;;7.27;2.80;;;-1.20;99.90;;;;;;4179700;28;20440;-81
2024/01/07 08:43:02;;;;;;;5.40;2.60;;;-1.20;99.90;;;;;;4177171;28;20467;-84
2024/01/07 08:45:04;;;;;;;5.43;2.50;;;-1.20;99.90;;;;;;4179163;28;20490;-78
2024/01/07 08:47:06;;;;;;;5.03;2.50;;;-1.20;99.90;;;;;;4183039;28;20453;-81
2024/01/07 08:49:08;;;;;;;6.97;2.80;;;-1.20;99.90;;;;;;4170818;28;20462;-80
2024/01/07 08:51:10;;;;;;;5.87;2.40;;;-1.20;99.90;;;;;;4177624;28;20446;-77
2024/01/07 08:53:12;;;;;;;8.63;4.17;;;-1.20;99.90;;;;;;4180240;28;20510;-78
2024/01/07 08:55:15;;;;;;;5.50;2.90;;;-1.20;99.90;;;;;;4187300;28;20523;-80
2024/01/07 08:57:18;;;;;;;7.20;2.60;;;-1.20;99.90;;;;;;4177304;28;20446;-78
2024/01/07 08:59:20;;;;;;;4.60;2.50;;;-1.10;99.90;;;;;;4155891;28;20470;-78
2024/01/07 09:01:23;;;;;;;6.37;2.83;;;-1.20;99.90;;;;;;4185161;28;20471;-81
2024/01/07 09:03:32;;;;;;;4.57;2.47;;;-1.20;99.90;;;;;;4177494;28;20543;-79
2024/01/07 09:05:34;;;;;;;4.20;2.60;;;-1.20;99.90;;;;;;4174855;28;20510;-79
2024/01/07 09:07:36;;;;;;;4.57;1.90;;;-1.20;99.90;;;;;;4176404;28;20458;-82
2024/01/07 09:09:38;;;;;;;4.17;2.00;;;-1.00;99.90;;;;;;4157844;28;21304;-80
2024/01/07 09:11:40;;;;;;;3.50;2.17;;;-1.20;99.90;;;;;;4182528;28;21244;-80
2024/01/07 09:13:44;;;;;;;3.83;1.80;;;-1.20;99.90;;;;;;4175981;28;20504;-80
2024/01/07 09:15:46;;;;;;;4.27;2.00;;;-1.20;99.90;;;;;;4195018;28;20478;-81
2024/01/07 09:17:47;;;;;;;4.07;2.00;;;-1.20;99.90;;;;;;4181072;28;20532;-79
2024/01/07 09:19:49;;;;;;;4.23;2.00;;;-1.10;99.90;;;;;;4178450;28;20940;-81
2024/01/07 09:21:52;;;;;;;4.07;1.80;;;-1.10;99.90;;;;;;4184829;28;20287;-82
2024/01/07 09:23:57;;;;;;;2.47;1.73;;;-1.20;99.90;;;;;;4175287;28;20958;-80
2024/01/07 09:25:59;;;;;;;4.07;1.90;;;-1.10;99.90;;;;;;4178613;28;20976;-78
2024/01/07 09:28:01;;;;;;;4.27;2.27;;;-1.10;99.90;;;;;;4175908;28;20456;-79
2024/01/07 09:30:05;;;;;;;3.50;1.67;;;-1.10;99.90;;;;;;4170035;28;20460;-79
2024/01/07 09:32:07;;;;;;;4.40;2.63;;;-1.10;99.90;;;;;;4174789;28;20465;-79
2024/01/07 09:34:09;;;;;;;4.37;2.43;;;-1.10;99.90;;;;;;4179522;28;20457;-78
2024/01/07 09:36:11;;;;;;;4.40;2.63;;;-1.10;99.90;;;;;;4177073;28;20974;-78
2024/01/07 09:38:12;;;;;;;4.87;2.43;;;-1.00;99.90;;;;;;4175093;28;20452;-79
2024/01/07 09:40:19;;;;;;;4.10;2.17;;;-0.60;99.90;;;;;;4179171;28;21057;-79
2024/01/07 09:42:21;;;;;;;4.57;1.67;;;-1.00;99.90;;;;;;4173552;28;21792;-79
2024/01/07 09:44:23;;;;;;;3.30;1.90;;;-1.00;99.90;;;;;;4179206;28;20857;-79
2024/01/07 09:46:29;;;;;;;4.87;1.70;;;-0.90;99.90;;;;;;4161312;28;20536;-79
2024/01/07 09:48:32;;;;;;;4.03;1.83;;;-0.90;99.90;;;;;;4176679;28;20455;-79
2024/01/07 09:50:34;;;;;;;5.10;1.77;;;-0.90;99.90;;;;;;4173568;28;20455;-79
2024/01/07 09:52:36;;;;;;;2.67;1.50;;;-0.90;99.90;;;;;;4164085;28;20511;-79
2024/01/07 09:54:38;;;;;;;3.80;1.40;;;-0.90;99.90;;;;;;4181450;28;20471;-79
2024/01/07 09:56:44;;;;;;;3.50;1.60;;;-0.80;99.90;;;;;;4180900;28;20454;-79
2024/01/07 09:58:47;;;;;;;2.93;1.60;;;-0.80;99.90;;;;;;4186674;28;20949;-79
2024/01/07 10:00:49;;;;;;;2.53;1.67;;;-0.80;99.90;;;;;;4184090;28;21374;-79
2024/01/07 10:02:52;;;;;;;3.90;1.80;;;-0.70;99.90;;;;;;4183226;28;20454;-80
2024/01/07 10:04:54;;;;;;;3.20;1.50;;;-0.70;99.90;;;;;;4181817;28;20893;-77
2024/01/07 10:06:56;;;;;;;3.30;1.73;;;-0.70;99.90;;;;;;4164403;28;20473;-79
2024/01/07 10:08:59;;;;;;;3.77;1.97;;;-0.70;99.90;;;;;;4176762;28;20479;-78
2024/01/07 10:11:04;;;;;;;4.90;1.60;;;-0.70;99.90;;;;;;4179039;28;20495;-77
2024/01/07 10:13:09;;;;;;;2.50;1.33;;;-0.70;99.90;;;;;;4174312;28;20940;-78
2024/01/07 10:15:11;;;;;;;2.73;1.40;;;-0.70;99.90;;;;;;4167062;28;20472;-78
2024/01/07 10:17:16;;;;;;;2.50;1.13;;;-0.60;99.90;;;;;;4177313;28;20451;-77
2024/01/07 10:19:26;;;;;;;2.03;1.20;;;-0.60;99.90;;;;;;4176720;28;20449;-77
2024/01/07 10:21:27;;;;;;;2.20;1.07;;;-0.60;99.90;;;;;;4180301;28;20454;-77
2024/01/07 10:23:29;;;;;;;2.30;1.50;;;-0.60;99.90;;;;;;4181051;28;20853;-77
2024/01/07 10:25:32;;;;;;;1.53;1.00;;;-0.60;99.90;;;;;;4186368;28;20226;-78
2024/01/07 10:27:35;;;;;;;2.33;1.33;;;-0.60;99.90;;;;;;4172193;28;21025;-78
2024/01/07 10:29:37;;;;;;;4.50;1.30;;;-0.40;99.90;;;;;;4185092;28;20485;-78
2024/01/07 10:31:40;;;;;;;1.77;1.40;;;-0.50;99.90;;;;;;4187562;28;20473;-75
2024/01/07 10:33:42;;;;;;;3.43;1.90;;;-0.40;99.90;;;;;;4186272;28;20441;-79